sensor_id;sensor_type;location;lat;lon;timestamp;P1;P2;P0
30713;PMS7003;17465;47.934;33.430;2023-12-28T00:02:16;1.75;1.25;0.00
30713;PMS7003;17465;47.934;33.430;2023-12-28T00:04:46;6.00;4.50;2.00
30713;PMS7003;17465;47.934;33.430;2023-12-28T00:07:16;5.00;3.00;1.75
30713;PMS7003;17465;47.934;33.430;2023-12-28T00:09:46;3.25;3.25;2.00
30713;PMS7003;17465;47.934;33.430;2023-12-28T00:12:17;1.75;1.75;0.00
30713;PMS7003;17465;47.934;33.430;2023-12-28T00:14:48;2.00;2.00;1.00
30713;PMS7003;17465;47.934;33.430;2023-12-28T00:17:19;5.25;4.00;1.00
30713;PMS7003;17465;47.934;33.430;2023-12-28T00:19:49;6.00;6.00;1.75
30713;PMS7003;17465;47.934;33.430;2023-12-28T00:22:19;3.00;3.00;1.75
30713;PMS7003;17465;47.934;33.430;2023-12-28T00:24:51;5.50;3.50;2.00
30713;PMS7003;17465;47.934;33.430;2023-12-28T00:27:22;6.25;4.00;2.00
30713;PMS7003;17465;47.934;33.430;2023-12-28T00:29:54;5.00;2.00;1.50
30713;PMS7003;17465;47.934;33.430;2023-12-28T00:32:24;2.75;2.75;1.00
30713;PMS7003;17465;47.934;33.430;2023-12-28T00:34:55;1.00;1.00;0.00
30713;PMS7003;17465;47.934;33.430;2023-12-28T00:37:25;2.00;2.00;1.50
30713;PMS7003;17465;47.934;33.430;2023-12-28T00:39:56;4.00;4.00;1.75
30713;PMS7003;17465;47.934;33.430;2023-12-28T00:42:26;3.50;3.25;2.00
30713;PMS7003;17465;47.934;33.430;2023-12-28T00:44:56;5.00;5.00;2.00
30713;PMS7003;17465;47.934;33.430;2023-12-28T00:47:28;3.25;3.25;1.25
30713;PMS7003;17465;47.934;33.430;2023-12-28T00:50:01;2.75;2.75;0.00
30713;PMS7003;17465;47.934;33.430;2023-12-28T00:52:32;3.25;3.25;1.00
30713;PMS7003;17465;47.934;33.430;2023-12-28T00:55:02;3.25;3.25;1.00
30713;PMS7003;17465;47.934;33.430;2023-12-28T00:57:33;3.25;2.75;0.25
30713;PMS7003;17465;47.934;33.430;2023-12-28T01:00:07;6.00;5.50;2.25
30713;PMS7003;17465;47.934;33.430;2023-12-28T01:02:39;3.25;3.25;2.00
30713;PMS7003;17465;47.934;33.430;2023-12-28T01:05:09;8.00;4.00;1.25
30713;PMS7003;17465;47.934;33.430;2023-12-28T01:07:40;2.75;2.75;1.25
30713;PMS7003;17465;47.934;33.430;2023-12-28T01:10:10;5.25;3.75;1.50
30713;PMS7003;17465;47.934;33.430;2023-12-28T01:12:40;2.00;2.00;1.00
30713;PMS7003;17465;47.934;33.430;2023-12-28T01:15:10;2.00;2.00;1.00
30713;PMS7003;17465;47.934;33.430;2023-12-28T01:17:41;5.50;5.50;2.00
30713;PMS7003;17465;47.934;33.430;2023-12-28T01:20:12;5.00;4.75;2.00
30713;PMS7003;17465;47.934;33.430;2023-12-28T01:22:42;3.00;2.00;1.00
30713;PMS7003;17465;47.934;33.430;2023-12-28T01:25:13;5.00;5.00;1.00
30713;PMS7003;17465;47.934;33.430;2023-12-28T01:27:43;2.00;2.00;1.00
30713;PMS7003;17465;47.934;33.430;2023-12-28T01:30:13;5.50;5.00;2.00
30713;PMS7003;17465;47.934;33.430;2023-12-28T01:32:44;4.50;4.00;2.00
30713;PMS7003;17465;47.934;33.430;2023-12-28T01:35:14;6.00;6.00;2.00
30713;PMS7003;17465;47.934;33.430;2023-12-28T01:37:45;3.25;3.25;2.00
30713;PMS7003;17465;47.934;33.430;2023-12-28T01:40:16;5.25;5.25;1.75
30713;PMS7003;17465;47.934;33.430;2023-12-28T01:42:46;4.50;4.00;2.00
30713;PMS7003;17465;47.934;33.430;2023-12-28T01:45:16;3.25;3.25;1.00
30713;PMS7003;17465;47.934;33.430;2023-12-28T01:48:06;2.50;2.50;1.75
30713;PMS7003;17465;47.934;33.430;2023-12-28T01:50:37;4.50;4.00;1.00
30713;PMS7003;17465;47.934;33.430;2023-12-28T01:53:09;6.00;5.00;2.00
30713;PMS7003;17465;47.934;33.430;2023-12-28T01:55:41;7.50;6.00;2.00
30713;PMS7003;17465;47.934;33.430;2023-12-28T01:58:11;8.75;7.25;4.50
30713;PMS7003;17465;47.934;33.430;2023-12-28T02:00:42;8.00;7.00;4.75
30713;PMS7003;17465;47.934;33.430;2023-12-28T02:03:12;8.50;5.00;2.00
30713;PMS7003;17465;47.934;33.430;2023-12-28T02:05:42;6.00;6.00;3.25
30713;PMS7003;17465;47.934;33.430;2023-12-28T02:08:13;6.25;6.25;2.50
30713;PMS7003;17465;47.934;33.430;2023-12-28T02:10:43;6.00;5.00;2.00
30713;PMS7003;17465;47.934;33.430;2023-12-28T02:13:13;7.00;5.75;2.00
30713;PMS7003;17465;47.934;33.430;2023-12-28T02:15:44;3.25;3.25;0.00
30713;PMS7003;17465;47.934;33.430;2023-12-28T02:18:19;5.00;5.00;2.00
30713;PMS7003;17465;47.934;33.430;2023-12-28T02:20:53;8.00;8.00;4.00
30713;PMS7003;17465;47.934;33.430;2023-12-28T02:23:25;7.00;7.00;3.00
30713;PMS7003;17465;47.934;33.430;2023-12-28T02:25:55;5.50;5.50;3.00
30713;PMS7003;17465;47.934;33.430;2023-12-28T02:28:25;6.00;4.00;1.25
30713;PMS7003;17465;47.934;33.430;2023-12-28T02:30:56;5.00;5.00;1.75
30713;PMS7003;17465;47.934;33.430;2023-12-28T02:33:29;5.00;5.00;4.00
30713;PMS7003;17465;47.934;33.430;2023-12-28T02:36:07;4.00;4.00;1.00
30713;PMS7003;17465;47.934;33.430;2023-12-28T02:38:38;9.25;6.00;4.00
30713;PMS7003;17465;47.934;33.430;2023-12-28T02:41:11;7.00;6.00;4.75
30713;PMS7003;17465;47.934;33.430;2023-12-28T02:43:42;5.00;5.00;1.00
30713;PMS7003;17465;47.934;33.430;2023-12-28T02:46:12;4.00;4.00;2.00
30713;PMS7003;17465;47.934;33.430;2023-12-28T02:48:42;3.00;3.00;1.00
30713;PMS7003;17465;47.934;33.430;2023-12-28T02:51:13;5.67;4.00;1.00
30713;PMS7003;17465;47.934;33.430;2023-12-28T02:53:43;9.00;8.00;4.00
30713;PMS7003;17465;47.934;33.430;2023-12-28T02:56:13;5.25;5.25;3.50
30713;PMS7003;17465;47.934;33.430;2023-12-28T02:58:43;4.00;4.00;1.00
30713;PMS7003;17465;47.934;33.430;2023-12-28T03:01:16;6.00;6.00;3.50
30713;PMS7003;17465;47.934;33.430;2023-12-28T03:03:46;5.75;5.75;2.00
30713;PMS7003;17465;47.934;33.430;2023-12-28T03:06:16;5.25;5.00;1.75
30713;PMS7003;17465;47.934;33.430;2023-12-28T03:08:47;8.25;6.00;2.00
30713;PMS7003;17465;47.934;33.430;2023-12-28T03:11:17;3.50;3.50;0.00
30713;PMS7003;17465;47.934;33.430;2023-12-28T03:13:47;8.25;5.50;2.00
30713;PMS7003;17465;47.934;33.430;2023-12-28T03:16:17;8.00;8.00;4.50
30713;PMS7003;17465;47.934;33.430;2023-12-28T03:18:48;7.50;6.00;2.00
30713;PMS7003;17465;47.934;33.430;2023-12-28T03:21:18;0.50;0.25;0.00
30713;PMS7003;17465;47.934;33.430;2023-12-28T03:23:48;4.50;4.50;1.75
30713;PMS7003;17465;47.934;33.430;2023-12-28T03:26:19;4.50;4.50;0.00
30713;PMS7003;17465;47.934;33.430;2023-12-28T03:28:49;4.00;4.00;1.00
30713;PMS7003;17465;47.934;33.430;2023-12-28T03:31:19;5.75;4.00;1.50
30713;PMS7003;17465;47.934;33.430;2023-12-28T03:33:50;6.00;5.75;2.00
30713;PMS7003;17465;47.934;33.430;2023-12-28T03:36:20;8.75;6.25;2.00
30713;PMS7003;17465;47.934;33.430;2023-12-28T03:38:50;6.00;5.00;2.00
30713;PMS7003;17465;47.934;33.430;2023-12-28T03:41:21;6.00;6.00;4.00
30713;PMS7003;17465;47.934;33.430;2023-12-28T03:43:51;5.25;5.25;3.50
30713;PMS7003;17465;47.934;33.430;2023-12-28T03:46:21;5.50;5.50;1.75
30713;PMS7003;17465;47.934;33.430;2023-12-28T03:48:52;6.00;5.25;1.00
30713;PMS7003;17465;47.934;33.430;2023-12-28T03:51:23;3.00;3.00;1.00
30713;PMS7003;17465;47.934;33.430;2023-12-28T03:53:53;5.75;5.75;1.50
30713;PMS7003;17465;47.934;33.430;2023-12-28T03:56:24;7.00;5.00;2.00
30713;PMS7003;17465;47.934;33.430;2023-12-28T03:58:55;5.00;4.00;1.00
30713;PMS7003;17465;47.934;33.430;2023-12-28T04:01:26;7.75;6.75;1.50
30713;PMS7003;17465;47.934;33.430;2023-12-28T04:03:56;6.00;6.00;3.50
30713;PMS7003;17465;47.934;33.430;2023-12-28T04:06:26;7.50;5.50;1.75
30713;PMS7003;17465;47.934;33.430;2023-12-28T04:08:57;4.00;3.75;0.75
30713;PMS7003;17465;47.934;33.430;2023-12-28T04:11:27;9.50;6.00;2.00
30713;PMS7003;17465;47.934;33.430;2023-12-28T04:13:57;7.50;7.00;3.00
30713;PMS7003;17465;47.934;33.430;2023-12-28T04:16:27;9.00;5.75;2.50
30713;PMS7003;17465;47.934;33.430;2023-12-28T04:18:58;8.75;8.75;4.50
30713;PMS7003;17465;47.934;33.430;2023-12-28T04:21:28;4.50;4.50;3.00
30713;PMS7003;17465;47.934;33.430;2023-12-28T04:24:01;8.00;6.00;1.00
30713;PMS7003;17465;47.934;33.430;2023-12-28T04:26:31;7.00;6.00;2.00
30713;PMS7003;17465;47.934;33.430;2023-12-28T04:29:02;4.50;4.50;1.00
30713;PMS7003;17465;47.934;33.430;2023-12-28T04:31:32;5.50;5.50;2.00
30713;PMS7003;17465;47.934;33.430;2023-12-28T04:34:03;5.00;4.75;1.00
30713;PMS7003;17465;47.934;33.430;2023-12-28T04:36:42;5.75;5.25;2.00
30713;PMS7003;17465;47.934;33.430;2023-12-28T04:39:14;8.00;5.33;2.00
30713;PMS7003;17465;47.934;33.430;2023-12-28T04:41:44;10.50;8.75;5.75
30713;PMS7003;17465;47.934;33.430;2023-12-28T04:44:15;13.00;8.75;4.25
30713;PMS7003;17465;47.934;33.430;2023-12-28T04:46:49;5.75;5.00;2.00
30713;PMS7003;17465;47.934;33.430;2023-12-28T04:49:19;8.75;8.00;2.50
30713;PMS7003;17465;47.934;33.430;2023-12-28T04:51:50;11.50;8.00;3.50
30713;PMS7003;17465;47.934;33.430;2023-12-28T04:54:20;8.25;8.25;4.25
30713;PMS7003;17465;47.934;33.430;2023-12-28T04:56:54;6.50;6.50;2.00
30713;PMS7003;17465;47.934;33.430;2023-12-28T04:59:27;6.00;6.00;3.00
30713;PMS7003;17465;47.934;33.430;2023-12-28T05:01:57;6.00;6.00;2.00
30713;PMS7003;17465;47.934;33.430;2023-12-28T05:04:28;8.00;8.00;4.25
30713;PMS7003;17465;47.934;33.430;2023-12-28T05:06:59;10.50;9.00;3.50
30713;PMS7003;17465;47.934;33.430;2023-12-28T05:09:29;9.00;8.00;4.25
30713;PMS7003;17465;47.934;33.430;2023-12-28T05:12:07;14.75;13.00;6.00
30713;PMS7003;17465;47.934;33.430;2023-12-28T05:14:38;16.75;13.75;6.00
30713;PMS7003;17465;47.934;33.430;2023-12-28T05:17:08;17.50;15.75;7.50
30713;PMS7003;17465;47.934;33.430;2023-12-28T05:19:38;12.00;12.00;5.00
30713;PMS7003;17465;47.934;33.430;2023-12-28T05:22:12;12.00;9.75;5.00
30713;PMS7003;17465;47.934;33.430;2023-12-28T05:24:42;11.75;8.75;4.75
30713;PMS7003;17465;47.934;33.430;2023-12-28T05:27:12;12.00;10.25;4.50
30713;PMS7003;17465;47.934;33.430;2023-12-28T05:29:42;28.50;28.50;15.75
30713;PMS7003;17465;47.934;33.430;2023-12-28T05:32:13;10.75;8.50;4.00
30713;PMS7003;17465;47.934;33.430;2023-12-28T05:34:44;6.00;6.00;2.00
30713;PMS7003;17465;47.934;33.430;2023-12-28T05:37:14;10.50;8.25;2.00
30713;PMS7003;17465;47.934;33.430;2023-12-28T05:39:44;6.25;5.75;1.25
30713;PMS7003;17465;47.934;33.430;2023-12-28T05:42:15;9.00;9.00;4.50
30713;PMS7003;17465;47.934;33.430;2023-12-28T05:44:47;13.25;12.75;5.00
30713;PMS7003;17465;47.934;33.430;2023-12-28T05:47:20;13.00;13.00;5.25
30713;PMS7003;17465;47.934;33.430;2023-12-28T05:49:50;12.50;10.50;6.00
30713;PMS7003;17465;47.934;33.430;2023-12-28T05:52:21;12.50;12.25;5.00
30713;PMS7003;17465;47.934;33.430;2023-12-28T05:54:52;14.75;13.00;5.50
30713;PMS7003;17465;47.934;33.430;2023-12-28T05:57:22;17.25;17.25;9.25
30713;PMS7003;17465;47.934;33.430;2023-12-28T05:59:52;9.25;8.25;3.50
30713;PMS7003;17465;47.934;33.430;2023-12-28T06:02:23;12.00;9.50;4.00
30713;PMS7003;17465;47.934;33.430;2023-12-28T06:04:53;9.50;9.50;4.75
30713;PMS7003;17465;47.934;33.430;2023-12-28T06:07:27;13.25;9.25;4.25
30713;PMS7003;17465;47.934;33.430;2023-12-28T06:09:57;13.00;12.25;5.75
30713;PMS7003;17465;47.934;33.430;2023-12-28T06:12:35;65.00;50.00;30.00
30713;PMS7003;17465;47.934;33.430;2023-12-28T06:15:01;10.50;6.50;0.00
30713;PMS7003;17465;47.934;33.430;2023-12-28T06:17:33;12.25;12.25;6.00
30713;PMS7003;17465;47.934;33.430;2023-12-28T06:20:03;10.50;9.75;4.25
30713;PMS7003;17465;47.934;33.430;2023-12-28T06:22:37;10.75;10.00;5.00
30713;PMS7003;17465;47.934;33.430;2023-12-28T06:25:07;18.00;17.00;10.50
30713;PMS7003;17465;47.934;33.430;2023-12-28T06:27:39;12.75;12.50;5.50
30713;PMS7003;17465;47.934;33.430;2023-12-28T06:30:09;13.00;13.00;7.00
30713;PMS7003;17465;47.934;33.430;2023-12-28T06:32:40;15.00;7.50;2.50
30713;PMS7003;17465;47.934;33.430;2023-12-28T06:35:11;13.00;10.00;5.00
30713;PMS7003;17465;47.934;33.430;2023-12-28T06:37:42;9.25;9.25;4.25
30713;PMS7003;17465;47.934;33.430;2023-12-28T06:40:12;12.25;12.25;6.50
30713;PMS7003;17465;47.934;33.430;2023-12-28T06:42:42;14.00;13.25;6.00
30713;PMS7003;17465;47.934;33.430;2023-12-28T06:45:12;11.25;11.25;8.00
30713;PMS7003;17465;47.934;33.430;2023-12-28T06:47:50;15.75;12.75;5.25
30713;PMS7003;17465;47.934;33.430;2023-12-28T06:50:23;12.00;12.00;6.00
30713;PMS7003;17465;47.934;33.430;2023-12-28T06:52:58;17.00;15.00;7.75
30713;PMS7003;17465;47.934;33.430;2023-12-28T06:55:35;12.50;12.50;8.00
30713;PMS7003;17465;47.934;33.430;2023-12-28T06:58:10;11.50;11.50;7.50
30713;PMS7003;17465;47.934;33.430;2023-12-28T07:00:39;20.00;18.00;12.00
30713;PMS7003;17465;47.934;33.430;2023-12-28T07:03:09;13.50;12.25;7.25
30713;PMS7003;17465;47.934;33.430;2023-12-28T07:05:39;18.00;16.50;9.00
30713;PMS7003;17465;47.934;33.430;2023-12-28T07:08:09;13.50;11.75;8.25
30713;PMS7003;17465;47.934;33.430;2023-12-28T07:10:42;16.75;14.50;8.50
30713;PMS7003;17465;47.934;33.430;2023-12-28T07:13:12;8.50;8.50;3.50
30713;PMS7003;17465;47.934;33.430;2023-12-28T07:15:42;11.50;10.75;6.25
30713;PMS7003;17465;47.934;33.430;2023-12-28T07:18:12;13.00;11.25;6.75
30713;PMS7003;17465;47.934;33.430;2023-12-28T07:20:45;9.00;9.00;4.00
30713;PMS7003;17465;47.934;33.430;2023-12-28T07:23:15;15.50;14.00;7.00
30713;PMS7003;17465;47.934;33.430;2023-12-28T07:25:48;14.00;9.25;5.00
30713;PMS7003;17465;47.934;33.430;2023-12-28T07:28:20;13.00;11.50;6.00
30713;PMS7003;17465;47.934;33.430;2023-12-28T07:30:53;9.25;9.25;5.00
30713;PMS7003;17465;47.934;33.430;2023-12-28T07:33:26;21.00;17.50;10.75
30713;PMS7003;17465;47.934;33.430;2023-12-28T07:35:58;9.50;8.75;4.00
30713;PMS7003;17465;47.934;33.430;2023-12-28T07:38:28;9.50;8.00;4.25
30713;PMS7003;17465;47.934;33.430;2023-12-28T07:41:00;15.00;9.75;3.25
30713;PMS7003;17465;47.934;33.430;2023-12-28T07:43:33;12.50;10.00;4.75
30713;PMS7003;17465;47.934;33.430;2023-12-28T07:46:02;9.50;9.50;4.75
30713;PMS7003;17465;47.934;33.430;2023-12-28T07:48:35;12.50;12.50;5.00
30713;PMS7003;17465;47.934;33.430;2023-12-28T07:51:06;10.00;9.00;4.25
30713;PMS7003;17465;47.934;33.430;2023-12-28T07:53:42;9.75;9.75;6.00
30713;PMS7003;17465;47.934;33.430;2023-12-28T07:56:13;10.75;10.75;5.50
30713;PMS7003;17465;47.934;33.430;2023-12-28T07:58:45;6.25;6.25;2.00
30713;PMS7003;17465;47.934;33.430;2023-12-28T08:01:15;13.50;10.25;5.75
30713;PMS7003;17465;47.934;33.430;2023-12-28T08:03:47;11.75;9.75;4.25
30713;PMS7003;17465;47.934;33.430;2023-12-28T08:06:17;6.00;6.00;2.75
30713;PMS7003;17465;47.934;33.430;2023-12-28T08:08:53;10.75;9.50;3.00
30713;PMS7003;17465;47.934;33.430;2023-12-28T08:11:19;9.00;9.00;2.75
30713;PMS7003;17465;47.934;33.430;2023-12-28T08:13:50;16.75;16.50;13.00
30713;PMS7003;17465;47.934;33.430;2023-12-28T08:16:20;13.00;9.00;4.75
30713;PMS7003;17465;47.934;33.430;2023-12-28T08:18:50;11.50;10.00;6.00
30713;PMS7003;17465;47.934;33.430;2023-12-28T08:21:21;12.00;12.00;5.25
30713;PMS7003;17465;47.934;33.430;2023-12-28T08:23:54;23.75;23.75;18.00
30713;PMS7003;17465;47.934;33.430;2023-12-28T08:26:25;9.75;9.50;5.25
30713;PMS7003;17465;47.934;33.430;2023-12-28T08:28:55;15.00;11.00;7.00
30713;PMS7003;17465;47.934;33.430;2023-12-28T08:31:25;19.25;15.75;9.25
30713;PMS7003;17465;47.934;33.430;2023-12-28T08:33:55;15.75;13.50;11.25
30713;PMS7003;17465;47.934;33.430;2023-12-28T08:36:28;35.25;32.50;21.75
30713;PMS7003;17465;47.934;33.430;2023-12-28T08:38:58;58.75;48.75;33.50
30713;PMS7003;17465;47.934;33.430;2023-12-28T08:41:29;34.75;30.75;23.50
30713;PMS7003;17465;47.934;33.430;2023-12-28T08:43:59;39.25;37.75;31.00
30713;PMS7003;17465;47.934;33.430;2023-12-28T08:46:29;16.50;13.75;10.50
30713;PMS7003;17465;47.934;33.430;2023-12-28T08:48:59;22.75;20.75;18.00
30713;PMS7003;17465;47.934;33.430;2023-12-28T08:54:18;18.50;14.75;9.50
30713;PMS7003;17465;47.934;33.430;2023-12-28T08:56:59;12.75;11.25;7.50
30713;PMS7003;17465;47.934;33.430;2023-12-28T08:59:30;12.25;12.25;7.25
30713;PMS7003;17465;47.934;33.430;2023-12-28T09:02:04;14.75;13.75;7.25
30713;PMS7003;17465;47.934;33.430;2023-12-28T09:04:35;14.75;12.00;7.00
30713;PMS7003;17465;47.934;33.430;2023-12-28T09:07:08;14.25;12.75;7.50
30713;PMS7003;17465;47.934;33.430;2023-12-28T09:09:40;5.75;5.75;2.75
30713;PMS7003;17465;47.934;33.430;2023-12-28T09:12:10;10.75;10.75;5.00
30713;PMS7003;17465;47.934;33.430;2023-12-28T09:14:41;9.00;8.50;5.00
30713;PMS7003;17465;47.934;33.430;2023-12-28T09:17:13;11.75;9.50;3.00
30713;PMS7003;17465;47.934;33.430;2023-12-28T09:19:45;9.25;6.25;2.50
30713;PMS7003;17465;47.934;33.430;2023-12-28T09:22:18;11.50;7.50;3.50
30713;PMS7003;17465;47.934;33.430;2023-12-28T09:24:48;8.25;8.25;3.00
30713;PMS7003;17465;47.934;33.430;2023-12-28T09:27:18;10.50;10.50;6.00
30713;PMS7003;17465;47.934;33.430;2023-12-28T09:32:36;11.75;10.25;5.25
30713;PMS7003;17465;47.934;33.430;2023-12-28T09:35:10;11.00;10.00;6.00
30713;PMS7003;17465;47.934;33.430;2023-12-28T09:37:53;14.00;9.25;3.00
30713;PMS7003;17465;47.934;33.430;2023-12-28T09:40:27;13.50;11.00;5.00
30713;PMS7003;17465;47.934;33.430;2023-12-28T09:45:58;11.00;11.00;6.00
30713;PMS7003;17465;47.934;33.430;2023-12-28T09:48:26;7.25;7.25;4.50
30713;PMS7003;17465;47.934;33.430;2023-12-28T09:50:59;13.50;12.25;6.00
30713;PMS7003;17465;47.934;33.430;2023-12-28T09:53:32;20.00;15.50;9.00
30713;PMS7003;17465;47.934;33.430;2023-12-28T09:56:04;10.75;10.75;6.75
30713;PMS7003;17465;47.934;33.430;2023-12-28T09:58:38;11.75;10.50;5.00
30713;PMS7003;17465;47.934;33.430;2023-12-28T10:01:13;15.50;12.50;5.00
30713;PMS7003;17465;47.934;33.430;2023-12-28T10:03:49;10.00;10.00;5.25
30713;PMS7003;17465;47.934;33.430;2023-12-28T10:06:25;9.00;8.25;4.50
30713;PMS7003;17465;47.934;33.430;2023-12-28T10:09:09;11.00;11.00;7.00
30713;PMS7003;17465;47.934;33.430;2023-12-28T10:11:41;10.25;9.25;5.50
30713;PMS7003;17465;47.934;33.430;2023-12-28T10:14:11;20.75;19.00;8.25
30713;PMS7003;17465;47.934;33.430;2023-12-28T10:16:46;7.25;7.25;5.00
30713;PMS7003;17465;47.934;33.430;2023-12-28T10:19:21;11.25;10.75;6.00
30713;PMS7003;17465;47.934;33.430;2023-12-28T10:21:52;14.50;11.75;7.50
30713;PMS7003;17465;47.934;33.430;2023-12-28T10:24:23;15.00;10.25;5.75
30713;PMS7003;17465;47.934;33.430;2023-12-28T10:26:53;14.75;10.00;5.00
30713;PMS7003;17465;47.934;33.430;2023-12-28T10:29:26;14.00;11.00;5.75
30713;PMS7003;17465;47.934;33.430;2023-12-28T10:32:00;9.75;9.00;5.50
30713;PMS7003;17465;47.934;33.430;2023-12-28T10:34:31;10.50;10.50;5.00
30713;PMS7003;17465;47.934;33.430;2023-12-28T10:37:03;14.00;12.50;7.00
30713;PMS7003;17465;47.934;33.430;2023-12-28T10:39:35;13.75;11.25;6.75
30713;PMS7003;17465;47.934;33.430;2023-12-28T10:42:07;11.25;8.00;6.00
30713;PMS7003;17465;47.934;33.430;2023-12-28T10:44:40;8.50;8.00;6.00
30713;PMS7003;17465;47.934;33.430;2023-12-28T10:47:15;14.00;13.75;7.50
30713;PMS7003;17465;47.934;33.430;2023-12-28T10:49:45;20.75;20.25;16.00
30713;PMS7003;17465;47.934;33.430;2023-12-28T10:52:17;37.75;34.00;27.50
30713;PMS7003;17465;47.934;33.430;2023-12-28T10:54:53;65.25;54.00;44.00
30713;PMS7003;17465;47.934;33.430;2023-12-28T10:57:26;50.25;45.00;35.75
30713;PMS7003;17465;47.934;33.430;2023-12-28T11:00:07;70.50;57.75;48.00
30713;PMS7003;17465;47.934;33.430;2023-12-28T11:02:38;45.50;41.75;35.00
30713;PMS7003;17465;47.934;33.430;2023-12-28T11:05:17;40.50;36.25;28.00
30713;PMS7003;17465;47.934;33.430;2023-12-28T11:07:42;40.25;37.00;34.50
30713;PMS7003;17465;47.934;33.430;2023-12-28T11:10:13;38.00;37.00;30.75
30713;PMS7003;17465;47.934;33.430;2023-12-28T11:12:45;37.75;36.00;30.25
30713;PMS7003;17465;47.934;33.430;2023-12-28T11:15:17;33.25;31.75;28.25
30713;PMS7003;17465;47.934;33.430;2023-12-28T11:17:48;23.00;21.00;15.00
30713;PMS7003;17465;47.934;33.430;2023-12-28T11:20:25;19.00;18.50;12.50
30713;PMS7003;17465;47.934;33.430;2023-12-28T11:23:06;17.75;17.75;14.00
30713;PMS7003;17465;47.934;33.430;2023-12-28T11:25:25;18.00;17.00;15.25
30713;PMS7003;17465;47.934;33.430;2023-12-28T11:27:59;25.50;22.75;21.75
30713;PMS7003;17465;47.934;33.430;2023-12-28T11:30:32;22.50;22.50;18.50
30713;PMS7003;17465;47.934;33.430;2023-12-28T11:33:06;21.00;21.00;19.00
30713;PMS7003;17465;47.934;33.430;2023-12-28T11:35:47;27.00;25.50;21.25
30713;PMS7003;17465;47.934;33.430;2023-12-28T11:38:20;23.50;22.00;18.25
30713;PMS7003;17465;47.934;33.430;2023-12-28T11:40:52;38.25;34.75;30.25
30713;PMS7003;17465;47.934;33.430;2023-12-28T11:43:22;29.50;29.50;24.75
30713;PMS7003;17465;47.934;33.430;2023-12-28T11:45:56;20.00;18.00;18.00
30713;PMS7003;17465;47.934;33.430;2023-12-28T11:48:31;22.50;22.50;19.75
30713;PMS7003;17465;47.934;33.430;2023-12-28T11:51:09;17.50;16.25;9.25
30713;PMS7003;17465;47.934;33.430;2023-12-28T11:53:39;8.00;8.00;2.50
30713;PMS7003;17465;47.934;33.430;2023-12-28T11:56:14;15.00;14.50;7.00
30713;PMS7003;17465;47.934;33.430;2023-12-28T11:58:46;12.25;12.00;6.00
30713;PMS7003;17465;47.934;33.430;2023-12-28T12:01:19;12.75;12.25;7.00
30713;PMS7003;17465;47.934;33.430;2023-12-28T12:03:53;9.00;9.00;3.00
30713;PMS7003;17465;47.934;33.430;2023-12-28T12:06:26;8.00;8.00;3.25
30713;PMS7003;17465;47.934;33.430;2023-12-28T12:08:56;11.50;9.50;5.50
30713;PMS7003;17465;47.934;33.430;2023-12-28T12:11:27;9.50;7.50;3.00
30713;PMS7003;17465;47.934;33.430;2023-12-28T12:14:02;7.50;7.50;2.50
30713;PMS7003;17465;47.934;33.430;2023-12-28T12:16:32;9.00;9.00;2.75
30713;PMS7003;17465;47.934;33.430;2023-12-28T12:19:08;8.00;7.75;3.50
30713;PMS7003;17465;47.934;33.430;2023-12-28T12:21:41;15.25;11.25;6.50
30713;PMS7003;17465;47.934;33.430;2023-12-28T12:24:19;12.00;9.00;3.00
30713;PMS7003;17465;47.934;33.430;2023-12-28T12:26:50;11.00;8.75;2.00
30713;PMS7003;17465;47.934;33.430;2023-12-28T12:29:22;8.50;6.75;3.25
30713;PMS7003;17465;47.934;33.430;2023-12-28T12:31:54;6.25;6.25;2.00
30713;PMS7003;17465;47.934;33.430;2023-12-28T12:34:25;7.75;7.75;3.50
30713;PMS7003;17465;47.934;33.430;2023-12-28T12:36:59;9.25;6.75;2.00
30713;PMS7003;17465;47.934;33.430;2023-12-28T12:39:29;6.00;6.00;1.00
30713;PMS7003;17465;47.934;33.430;2023-12-28T12:42:00;12.25;11.75;6.25
30713;PMS7003;17465;47.934;33.430;2023-12-28T12:44:30;15.50;13.00;9.00
30713;PMS7003;17465;47.934;33.430;2023-12-28T12:47:01;20.75;18.00;13.50
30713;PMS7003;17465;47.934;33.430;2023-12-28T12:49:32;35.00;32.75;28.75
30713;PMS7003;17465;47.934;33.430;2023-12-28T12:52:02;65.75;54.00;50.50
30713;PMS7003;17465;47.934;33.430;2023-12-28T12:54:34;71.00;59.25;57.25
30713;PMS7003;17465;47.934;33.430;2023-12-28T12:57:14;104.80;104.00;102.60
30713;PMS7003;17465;47.934;33.430;2023-12-28T12:59:42;86.50;74.50;70.25
30713;PMS7003;17465;47.934;33.430;2023-12-28T13:02:14;120.20;117.20;115.80
30713;PMS7003;17465;47.934;33.430;2023-12-28T13:04:45;86.25;77.50;72.75
30713;PMS7003;17465;47.934;33.430;2023-12-28T13:07:18;64.00;54.25;46.50
30713;PMS7003;17465;47.934;33.430;2023-12-28T13:09:52;65.25;54.75;44.00
30713;PMS7003;17465;47.934;33.430;2023-12-28T13:12:32;52.00;43.00;34.00
30713;PMS7003;17465;47.934;33.430;2023-12-28T13:15:03;41.50;37.50;30.25
30713;PMS7003;17465;47.934;33.430;2023-12-28T13:17:38;25.00;22.00;17.25
30713;PMS7003;17465;47.934;33.430;2023-12-28T13:20:13;11.25;10.75;6.00
30713;PMS7003;17465;47.934;33.430;2023-12-28T13:22:46;10.00;7.50;5.25
30713;PMS7003;17465;47.934;33.430;2023-12-28T13:25:20;10.25;10.00;6.00
30713;PMS7003;17465;47.934;33.430;2023-12-28T13:27:56;10.00;10.00;6.50
30713;PMS7003;17465;47.934;33.430;2023-12-28T13:30:36;11.75;11.75;5.00
30713;PMS7003;17465;47.934;33.430;2023-12-28T13:33:07;14.00;13.25;6.75
30713;PMS7003;17465;47.934;33.430;2023-12-28T13:35:46;10.75;10.75;6.00
30713;PMS7003;17465;47.934;33.430;2023-12-28T13:38:11;15.25;13.25;6.25
30713;PMS7003;17465;47.934;33.430;2023-12-28T13:40:50;15.25;15.25;7.75
30713;PMS7003;17465;47.934;33.430;2023-12-28T13:43:20;15.00;15.00;9.75
30713;PMS7003;17465;47.934;33.430;2023-12-28T13:45:57;20.75;19.75;13.00
30713;PMS7003;17465;47.934;33.430;2023-12-28T13:48:34;12.25;11.25;7.00
30713;PMS7003;17465;47.934;33.430;2023-12-28T13:51:06;10.00;10.00;6.00
30713;PMS7003;17465;47.934;33.430;2023-12-28T13:53:36;11.75;11.75;6.00
30713;PMS7003;17465;47.934;33.430;2023-12-28T13:56:12;17.75;17.00;9.00
30713;PMS7003;17465;47.934;33.430;2023-12-28T13:58:55;23.25;18.50;10.50
30713;PMS7003;17465;47.934;33.430;2023-12-28T14:01:28;31.00;24.25;14.25
30713;PMS7003;17465;47.934;33.430;2023-12-28T14:04:03;23.00;23.00;11.75
30713;PMS7003;17465;47.934;33.430;2023-12-28T14:06:39;15.25;15.25;8.75
30713;PMS7003;17465;47.934;33.430;2023-12-28T14:09:14;19.50;19.00;11.00
30713;PMS7003;17465;47.934;33.430;2023-12-28T14:11:44;16.25;16.00;7.75
30713;PMS7003;17465;47.934;33.430;2023-12-28T14:14:20;19.75;19.00;9.50
30713;PMS7003;17465;47.934;33.430;2023-12-28T14:16:51;68.75;54.50;32.25
30713;PMS7003;17465;47.934;33.430;2023-12-28T14:19:24;29.25;27.25;14.50
30713;PMS7003;17465;47.934;33.430;2023-12-28T14:21:55;39.50;33.75;17.00
30713;PMS7003;17465;47.934;33.430;2023-12-28T14:24:27;13.75;12.50;2.00
30713;PMS7003;17465;47.934;33.430;2023-12-28T14:26:59;40.25;39.50;21.25
30713;PMS7003;17465;47.934;33.430;2023-12-28T14:29:30;19.00;19.00;13.00
30713;PMS7003;17465;47.934;33.430;2023-12-28T14:32:06;27.50;24.75;14.75